Time;durP1;ratioP1;P1;durP2;ratioP2;P2;SDS_P1;SDS_P2;PMS_P1;PMS_P2;Temp;Humidity;BMP_temperature;BMP_pressure;BME280_temperature;BME280_humidity;BME280_pressure;Samples;Min_cycle;Max_cycle;Signal;HPM_P1;HPM_P2
2021/12/19 00:00:17;;;;;;;33.10;18.10;;;;;;;;;;4978310;28;20985;-76
2021/12/19 00:03:03;;;;;;;29.03;18.10;;;;;;;;;;4984679;28;20230;-75
2021/12/19 00:10:53;;;;;;;30.30;17.30;;;;;;;;;;4972196;28;20511;-76
2021/12/19 00:13:23;;;;;;;31.27;17.88;;;;;;;;;;4970159;28;20983;-76
2021/12/19 00:15:50;;;;;;;38.50;19.60;;;;;;;;;;4974246;28;20193;-75
2021/12/19 00:18:18;;;;;;;34.97;16.93;;;;;;;;;;4985291;28;20479;-74
2021/12/19 00:20:46;;;;;;;39.40;21.37;;;;;;;;;;4981305;28;21066;-75
2021/12/19 00:23:13;;;;;;;35.85;19.27;;;;;;;;;;4969804;28;20469;-74
2021/12/19 00:25:40;;;;;;;37.80;19.73;;;;;;;;;;4968809;28;20200;-75
2021/12/19 00:28:10;;;;;;;47.67;22.37;;;;;;;;;;4969362;28;20608;-76
2021/12/19 00:30:38;;;;;;;41.80;20.33;;;;;;;;;;4968290;28;20752;-76
2021/12/19 00:33:05;;;;;;;45.33;21.97;;;;;;;;;;4990608;28;20451;-75
2021/12/19 00:35:33;;;;;;;38.60;20.23;;;;;;;;;;4992061;28;20444;-74
2021/12/19 00:38:01;;;;;;;39.65;20.42;;;;;;;;;;4973168;28;20465;-76
2021/12/19 00:40:28;;;;;;;40.22;21.00;;;;;;;;;;4985794;28;20216;-75
2021/12/19 00:43:04;;;;;;;44.63;22.53;;;;;;;;;;4985681;28;20205;-74
2021/12/19 00:45:34;;;;;;;40.13;20.73;;;;;;;;;;4984515;28;20456;-75
2021/12/19 00:48:02;;;;;;;47.97;24.47;;;;;;;;;;4967765;28;20848;-74
2021/12/19 00:50:30;;;;;;;51.37;23.90;;;;;;;;;;4967946;28;21044;-76
2021/12/19 00:52:58;;;;;;;51.53;24.48;;;;;;;;;;4969702;28;21097;-76
2021/12/19 00:55:27;;;;;;;42.77;22.73;;;;;;;;;;4972929;28;20207;-76
2021/12/19 00:57:55;;;;;;;47.57;24.00;;;;;;;;;;4974541;28;20444;-75
2021/12/19 01:00:24;;;;;;;49.67;23.37;;;;;;;;;;4977189;28;20492;-76
2021/12/19 01:02:53;;;;;;;53.30;23.63;;;;;;;;;;4988072;28;20483;-74
2021/12/19 01:05:21;;;;;;;49.10;22.60;;;;;;;;;;4988555;28;20975;-76
2021/12/19 01:07:48;;;;;;;50.43;23.10;;;;;;;;;;4992424;28;20488;-76
2021/12/19 01:10:20;;;;;;;46.37;22.93;;;;;;;;;;4980439;28;20473;-75
2021/12/19 01:12:47;;;;;;;43.13;22.20;;;;;;;;;;4972266;28;20961;-74
2021/12/19 01:15:16;;;;;;;46.47;22.60;;;;;;;;;;4981362;28;20885;-75
2021/12/19 01:17:43;;;;;;;58.77;26.30;;;;;;;;;;4988296;28;20778;-75
2021/12/19 01:20:13;;;;;;;54.53;24.70;;;;;;;;;;5002296;22;21625;-77
2021/12/19 01:22:41;;;;;;;52.13;23.67;;;;;;;;;;5011668;28;20430;-75
2021/12/19 01:25:11;;;;;;;48.20;24.48;;;;;;;;;;5011181;28;20443;-76
2021/12/19 01:27:39;;;;;;;48.13;22.70;;;;;;;;;;5009819;28;20219;-76
2021/12/19 01:30:08;;;;;;;57.27;24.00;;;;;;;;;;5011488;28;20477;-75
2021/12/19 01:32:35;;;;;;;46.90;22.90;;;;;;;;;;5001446;28;20455;-76
2021/12/19 01:35:02;;;;;;;44.13;21.10;;;;;;;;;;4996908;28;20458;-76
2021/12/19 01:37:30;;;;;;;49.40;23.13;;;;;;;;;;4991548;28;20439;-76
2021/12/19 01:40:00;;;;;;;46.73;23.27;;;;;;;;;;4991526;28;20960;-75
2021/12/19 01:42:31;;;;;;;40.20;20.70;;;;;;;;;;5011641;28;20447;-75
2021/12/19 01:45:06;;;;;;;51.50;24.73;;;;;;;;;;5011263;28;20786;-76
2021/12/19 01:47:34;;;;;;;54.60;25.07;;;;;;;;;;5011737;28;20490;-76
2021/12/19 01:50:01;;;;;;;49.92;23.98;;;;;;;;;;5000138;28;20464;-75
2021/12/19 01:52:29;;;;;;;49.33;20.97;;;;;;;;;;4998736;28;20209;-76
2021/12/19 01:54:57;;;;;;;47.10;22.77;;;;;;;;;;5009516;28;20482;-76
2021/12/19 01:57:25;;;;;;;51.38;23.38;;;;;;;;;;5010957;28;21061;-75
2021/12/19 01:59:52;;;;;;;45.85;23.10;;;;;;;;;;5009815;28;20216;-75
2021/12/19 02:02:21;;;;;;;49.88;24.90;;;;;;;;;;5011125;28;20191;-75
2021/12/19 02:04:48;;;;;;;44.90;19.80;;;;;;;;;;5002728;28;20669;-75
2021/12/19 02:07:16;;;;;;;36.33;18.47;;;;;;;;;;4998254;28;20207;-75
2021/12/19 02:09:43;;;;;;;40.58;20.42;;;;;;;;;;4995966;28;20566;-76
2021/12/19 02:12:11;;;;;;;47.47;20.95;;;;;;;;;;5008594;28;20199;-74
2021/12/19 02:14:39;;;;;;;39.28;20.17;;;;;;;;;;5007889;28;20204;-76
2021/12/19 02:17:06;;;;;;;39.05;19.17;;;;;;;;;;5006799;28;20219;-75
2021/12/19 02:19:36;;;;;;;39.43;19.30;;;;;;;;;;5006483;28;20208;-74
2021/12/19 02:22:05;;;;;;;41.23;20.57;;;;;;;;;;4997964;28;20476;-75
2021/12/19 02:24:34;;;;;;;32.95;17.52;;;;;;;;;;5003197;28;20443;-75
2021/12/19 02:27:01;;;;;;;39.45;18.33;;;;;;;;;;5009579;28;20247;-74
2021/12/19 02:29:28;;;;;;;37.95;18.05;;;;;;;;;;5010195;28;20234;-74
2021/12/19 02:31:56;;;;;;;31.33;16.70;;;;;;;;;;5011079;28;20212;-74
2021/12/19 02:34:27;;;;;;;33.45;15.68;;;;;;;;;;5002627;28;20204;-76
2021/12/19 02:37:22;;;;;;;34.58;17.60;;;;;;;;;;5015810;28;20193;-74
2021/12/19 02:40:20;;;;;;;33.53;17.88;;;;;;;;;;5015067;28;20235;-75
2021/12/19 02:48:11;;;;;;;29.87;15.07;;;;;;;;;;4990012;28;20614;-74
2021/12/19 02:50:44;;;;;;;24.63;14.40;;;;;;;;;;4989617;28;21005;-74
2021/12/19 02:53:11;;;;;;;31.53;15.60;;;;;;;;;;4989678;28;20284;-74
2021/12/19 02:55:39;;;;;;;28.50;15.33;;;;;;;;;;4989097;28;20456;-75
2021/12/19 02:58:06;;;;;;;28.73;16.27;;;;;;;;;;5004936;28;20461;-75
2021/12/19 03:00:34;;;;;;;26.92;14.60;;;;;;;;;;4996456;28;20482;-75
2021/12/19 03:03:01;;;;;;;26.85;15.63;;;;;;;;;;5002558;28;20657;-74
2021/12/19 03:05:30;;;;;;;26.38;14.15;;;;;;;;;;5010962;28;20200;-74
2021/12/19 03:07:58;;;;;;;25.00;14.20;;;;;;;;;;5007675;28;20266;-74
2021/12/19 03:13:20;;;;;;;27.13;14.50;;;;;;;;;;5008420;28;20747;-74
2021/12/19 03:18:28;;;;;;;27.77;14.23;;;;;;;;;;4994999;28;20246;-73
2021/12/19 03:20:55;;;;;;;25.50;12.68;;;;;;;;;;4993333;28;20479;-74
2021/12/19 03:23:23;;;;;;;28.80;15.70;;;;;;;;;;4989371;28;20200;-75
2021/12/19 03:25:50;;;;;;;28.30;15.60;;;;;;;;;;4995091;28;20200;-74
2021/12/19 03:28:19;;;;;;;27.70;13.93;;;;;;;;;;5006419;28;20228;-74
2021/12/19 03:30:47;;;;;;;26.77;14.43;;;;;;;;;;5009606;28;20458;-74
2021/12/19 03:33:14;;;;;;;25.63;13.43;;;;;;;;;;4992410;28;20204;-73
2021/12/19 03:35:42;;;;;;;26.13;14.57;;;;;;;;;;4992099;28;20938;-75
2021/12/19 03:38:10;;;;;;;26.57;14.17;;;;;;;;;;4991048;28;20553;-74
2021/12/19 03:40:40;;;;;;;24.10;13.57;;;;;;;;;;4994818;28;21093;-75
2021/12/19 03:43:09;;;;;;;18.73;11.85;;;;;;;;;;4991745;28;20263;-74
2021/12/19 03:45:38;;;;;;;23.13;14.00;;;;;;;;;;4992937;28;20197;-75
2021/12/19 03:48:10;;;;;;;26.30;13.50;;;;;;;;;;5007403;28;20439;-75
2021/12/19 03:50:37;;;;;;;22.33;12.95;;;;;;;;;;5008427;28;20216;-74
2021/12/19 03:53:04;;;;;;;21.95;12.85;;;;;;;;;;5007881;28;20207;-74
2021/12/19 03:55:32;;;;;;;23.13;13.10;;;;;;;;;;5012097;28;20665;-75
2021/12/19 03:57:59;;;;;;;21.47;12.63;;;;;;;;;;5008514;28;20459;-73
2021/12/19 04:00:27;;;;;;;21.17;12.20;;;;;;;;;;5007901;28;20478;-74
2021/12/19 04:02:58;;;;;;;21.88;12.65;;;;;;;;;;4994163;28;20475;-74
2021/12/19 04:05:25;;;;;;;21.75;12.68;;;;;;;;;;4999269;28;20222;-74
2021/12/19 04:07:52;;;;;;;16.80;10.18;;;;;;;;;;5008999;28;20188;-74
2021/12/19 04:10:21;;;;;;;18.92;10.32;;;;;;;;;;5003441;28;20216;-77
2021/12/19 04:12:48;;;;;;;18.33;10.60;;;;;;;;;;5007903;28;20242;-75
2021/12/19 04:15:16;;;;;;;16.60;10.05;;;;;;;;;;5003432;28;20198;-76
2021/12/19 04:17:43;;;;;;;17.40;10.35;;;;;;;;;;4997250;28;20200;-74
2021/12/19 04:20:15;;;;;;;19.58;10.40;;;;;;;;;;4994593;28;20686;-74
2021/12/19 04:22:42;;;;;;;16.80;10.10;;;;;;;;;;4988986;28;20205;-74
2021/12/19 04:25:10;;;;;;;16.80;10.25;;;;;;;;;;4988671;28;20793;-75
2021/12/19 04:27:37;;;;;;;19.45;10.75;;;;;;;;;;4988426;28;20193;-75
2021/12/19 04:30:20;;;;;;;15.20;9.63;;;;;;;;;;4995561;28;20228;-74
2021/12/19 04:32:57;;;;;;;15.63;9.50;;;;;;;;;;5013113;28;20482;-73
2021/12/19 04:35:28;;;;;;;15.05;9.10;;;;;;;;;;5012711;28;20541;-75
2021/12/19 04:40:44;;;;;;;14.30;9.30;;;;;;;;;;5000344;28;20216;-74
2021/12/19 04:51:41;;;;;;;12.90;8.50;;;;;;;;;;5012697;28;20303;-74
2021/12/19 04:54:22;;;;;;;14.37;7.93;;;;;;;;;;5011533;28;20212;-75
2021/12/19 04:57:03;;;;;;;13.73;8.93;;;;;;;;;;5013329;28;20988;-74
2021/12/19 05:02:16;;;;;;;13.15;7.88;;;;;;;;;;5001174;28;20279;-74
2021/12/19 05:15:31;;;;;;;12.83;8.10;;;;;;;;;;5006069;28;20309;-75
2021/12/19 05:18:03;;;;;;;15.10;8.90;;;;;;;;;;5004685;28;20447;-74
2021/12/19 05:20:31;;;;;;;10.95;7.97;;;;;;;;;;4998773;28;20232;-75
2021/12/19 05:23:06;;;;;;;14.75;9.10;;;;;;;;;;5010309;28;20250;-73
2021/12/19 05:25:33;;;;;;;14.15;8.73;;;;;;;;;;5009479;28;20201;-74
2021/12/19 05:28:00;;;;;;;16.20;8.93;;;;;;;;;;5009817;28;20195;-76
2021/12/19 05:30:28;;;;;;;17.80;9.18;;;;;;;;;;5006166;28;20631;-75
2021/12/19 05:32:55;;;;;;;16.52;9.40;;;;;;;;;;5009651;28;20204;-74
2021/12/19 05:35:32;;;;;;;15.90;9.13;;;;;;;;;;4998731;28;20278;-75
2021/12/19 05:46:05;;;;;;;17.05;9.60;;;;;;;;;;5010176;28;20427;-75
2021/12/19 05:48:35;;;;;;;17.98;11.40;;;;;;;;;;4999968;28;20208;-74
2021/12/19 05:51:04;;;;;;;16.17;9.82;;;;;;;;;;4999018;28;20275;-74
2021/12/19 05:53:32;;;;;;;17.07;11.17;;;;;;;;;;4999499;28;20215;-75
2021/12/19 05:55:59;;;;;;;16.33;10.60;;;;;;;;;;5008445;28;20447;-74
2021/12/19 05:58:26;;;;;;;15.40;9.68;;;;;;;;;;4999425;28;20955;-74
2021/12/19 06:00:54;;;;;;;15.23;10.13;;;;;;;;;;5008105;28;20219;-74
2021/12/19 06:03:21;;;;;;;13.03;9.40;;;;;;;;;;5021527;28;20667;-74
2021/12/19 06:05:48;;;;;;;16.87;9.80;;;;;;;;;;5004379;28;20467;-75
2021/12/19 06:10:57;;;;;;;15.85;8.93;;;;;;;;;;4998763;28;20466;-75
2021/12/19 06:13:28;;;;;;;16.77;9.63;;;;;;;;;;5003876;28;20578;-75
2021/12/19 06:15:57;;;;;;;13.60;8.80;;;;;;;;;;5007515;28;20538;-74
2021/12/19 06:18:24;;;;;;;13.30;8.73;;;;;;;;;;5000134;28;20230;-75
2021/12/19 06:20:55;;;;;;;14.93;9.32;;;;;;;;;;5007490;28;20246;-74
2021/12/19 06:23:23;;;;;;;14.20;9.63;;;;;;;;;;4997514;28;20643;-75
2021/12/19 06:25:50;;;;;;;14.23;9.10;;;;;;;;;;4993423;28;20440;-75
2021/12/19 06:28:19;;;;;;;13.80;8.63;;;;;;;;;;4997164;28;20446;-74
2021/12/19 06:30:47;;;;;;;12.43;8.60;;;;;;;;;;5006963;28;20490;-75
2021/12/19 06:33:14;;;;;;;10.93;7.97;;;;;;;;;;5006966;28;20938;-74
2021/12/19 06:35:41;;;;;;;9.95;7.18;;;;;;;;;;5007680;28;21839;-75
2021/12/19 06:38:08;;;;;;;11.20;6.93;;;;;;;;;;4998669;28;20335;-74
2021/12/19 06:40:36;;;;;;;10.07;6.40;;;;;;;;;;4973592;28;20219;-74
2021/12/19 06:43:03;;;;;;;12.20;7.57;;;;;;;;;;5001420;28;20192;-74
2021/12/19 06:45:32;;;;;;;13.27;7.43;;;;;;;;;;5008186;28;20997;-75
2021/12/19 06:47:59;;;;;;;11.93;7.20;;;;;;;;;;5010262;28;20477;-75
2021/12/19 06:50:26;;;;;;;11.63;7.90;;;;;;;;;;5009185;28;20503;-76
2021/12/19 06:52:53;;;;;;;11.10;7.50;;;;;;;;;;5004587;28;20552;-75
2021/12/19 06:55:21;;;;;;;10.27;6.13;;;;;;;;;;4997029;28;20439;-75
2021/12/19 06:57:48;;;;;;;11.20;6.70;;;;;;;;;;5003034;28;20200;-75
2021/12/19 07:00:17;;;;;;;10.45;6.63;;;;;;;;;;5009324;28;20295;-76
2021/12/19 07:02:45;;;;;;;8.50;6.10;;;;;;;;;;5010133;28;20576;-76
2021/12/19 07:05:12;;;;;;;10.23;6.20;;;;;;;;;;5008923;28;20818;-75
2021/12/19 07:07:40;;;;;;;11.10;7.28;;;;;;;;;;5010247;28;20470;-75
2021/12/19 07:10:10;;;;;;;11.57;6.65;;;;;;;;;;5012476;28;20231;-75
2021/12/19 07:12:40;;;;;;;13.07;7.70;;;;;;;;;;5004694;28;20646;-76
2021/12/19 07:15:08;;;;;;;12.70;6.13;;;;;;;;;;4994954;28;20495;-76
2021/12/19 07:17:35;;;;;;;12.97;7.60;;;;;;;;;;4996355;28;20642;-76
2021/12/19 07:20:04;;;;;;;10.38;6.30;;;;;;;;;;4995869;28;20482;-76
2021/12/19 07:22:32;;;;;;;10.50;7.65;;;;;;;;;;5004143;28;20204;-77
2021/12/19 07:24:59;;;;;;;10.55;6.78;;;;;;;;;;5006097;28;20184;-75
2021/12/19 07:27:26;;;;;;;11.93;6.80;;;;;;;;;;5008063;28;20197;-75
2021/12/19 07:29:56;;;;;;;12.00;7.60;;;;;;;;;;5004992;28;20494;-76
2021/12/19 07:32:24;;;;;;;10.85;7.70;;;;;;;;;;4999095;28;20201;-75
2021/12/19 07:34:51;;;;;;;10.98;7.53;;;;;;;;;;4994779;28;20212;-76
2021/12/19 07:37:20;;;;;;;11.80;7.75;;;;;;;;;;4988772;28;20706;-74
2021/12/19 07:39:55;;;;;;;14.55;7.60;;;;;;;;;;5001023;28;20223;-77
2021/12/19 07:42:22;;;;;;;13.02;7.75;;;;;;;;;;4990714;28;20665;-76
2021/12/19 07:44:50;;;;;;;12.10;7.60;;;;;;;;;;5005997;28;20196;-76
2021/12/19 07:47:17;;;;;;;12.05;7.97;;;;;;;;;;5008717;28;20211;-77
2021/12/19 07:49:44;;;;;;;14.93;8.63;;;;;;;;;;4989300;28;20232;-76
2021/12/19 07:52:11;;;;;;;13.47;7.23;;;;;;;;;;4991932;28;20447;-75
2021/12/19 07:54:40;;;;;;;13.05;8.35;;;;;;;;;;4994058;28;20941;-76
2021/12/19 07:57:07;;;;;;;14.70;9.32;;;;;;;;;;4995788;28;20189;-76
2021/12/19 07:59:34;;;;;;;13.40;8.55;;;;;;;;;;4989266;28;20221;-75
2021/12/19 08:02:02;;;;;;;13.73;8.93;;;;;;;;;;4989009;28;20549;-75
2021/12/19 08:04:30;;;;;;;17.13;9.05;;;;;;;;;;5001765;28;20548;-76
2021/12/19 08:06:57;;;;;;;15.20;9.48;;;;;;;;;;5007889;28;20191;-74
2021/12/19 08:09:35;;;;;;;16.30;10.35;;;;;;;;;;5009283;28;20223;-76
2021/12/19 08:12:04;;;;;;;12.82;8.75;;;;;;;;;;5009787;28;20293;-77
2021/12/19 08:14:31;;;;;;;12.55;7.78;;;;;;;;;;5002666;28;20197;-75
2021/12/19 08:16:58;;;;;;;13.85;7.22;;;;;;;;;;4997867;28;20666;-76
2021/12/19 08:19:25;;;;;;;12.48;8.07;;;;;;;;;;4994494;28;20209;-76
2021/12/19 08:21:53;;;;;;;12.52;6.88;;;;;;;;;;4998144;28;20547;-77
2021/12/19 08:24:22;;;;;;;11.32;5.93;;;;;;;;;;5005081;28;20188;-77
2021/12/19 08:26:49;;;;;;;13.03;6.60;;;;;;;;;;5003580;28;20196;-74
2021/12/19 08:29:17;;;;;;;14.52;6.43;;;;;;;;;;5006526;28;20569;-77
2021/12/19 08:31:44;;;;;;;13.15;6.03;;;;;;;;;;4994949;28;20658;-75
2021/12/19 08:34:11;;;;;;;9.77;5.97;;;;;;;;;;4992687;28;20203;-75
2021/12/19 08:36:39;;;;;;;10.05;5.20;;;;;;;;;;4994400;28;20207;-75
2021/12/19 08:39:08;;;;;;;9.73;4.90;;;;;;;;;;4996590;28;20196;-74
2021/12/19 08:41:35;;;;;;;8.23;4.90;;;;;;;;;;5007154;28;20212;-77
2021/12/19 08:44:02;;;;;;;6.05;3.70;;;;;;;;;;5003867;28;20199;-76
2021/12/19 08:46:32;;;;;;;4.78;3.08;;;;;;;;;;5008209;28;20304;-78
2021/12/19 08:48:59;;;;;;;5.90;3.30;;;;;;;;;;4996252;28;20223;-76
2021/12/19 08:51:27;;;;;;;4.30;3.00;;;;;;;;;;4994272;28;20230;-76
2021/12/19 08:53:54;;;;;;;4.03;2.92;;;;;;;;;;5000539;28;20196;-76
2021/12/19 08:56:21;;;;;;;2.33;2.00;;;;;;;;;;5005950;28;20188;-77
2021/12/19 08:58:48;;;;;;;3.90;2.95;;;;;;;;;;5007995;28;20211;-75
2021/12/19 09:01:16;;;;;;;4.22;2.70;;;;;;;;;;5007930;28;20213;-75
2021/12/19 09:03:44;;;;;;;5.47;3.00;;;;;;;;;;5007395;28;20311;-76
2021/12/19 09:06:11;;;;;;;4.70;2.73;;;;;;;;;;5004065;28;20447;-75
2021/12/19 09:08:38;;;;;;;4.47;2.93;;;;;;;;;;4994923;28;20474;-76
2021/12/19 09:11:06;;;;;;;4.40;3.00;;;;;;;;;;4987480;28;20494;-75
2021/12/19 09:13:34;;;;;;;4.97;3.05;;;;;;;;;;5003688;28;20470;-74
2021/12/19 09:16:02;;;;;;;4.38;2.47;;;;;;;;;;4999869;28;20574;-75
2021/12/19 09:18:29;;;;;;;5.70;2.90;;;;;;;;;;4994787;28;20193;-76
2021/12/19 09:20:58;;;;;;;7.05;4.15;;;;;;;;;;4993600;28;20228;-76
2021/12/19 09:23:27;;;;;;;4.72;3.10;;;;;;;;;;4998045;28;20886;-74
2021/12/19 09:25:54;;;;;;;6.00;3.47;;;;;;;;;;4999787;28;20307;-75
2021/12/19 09:28:21;;;;;;;5.75;3.67;;;;;;;;;;5008667;28;20196;-75
2021/12/19 09:30:48;;;;;;;5.33;3.57;;;;;;;;;;5008880;28;20231;-76
2021/12/19 09:33:16;;;;;;;7.23;3.57;;;;;;;;;;5008859;28;20446;-76
2021/12/19 09:35:43;;;;;;;5.85;3.47;;;;;;;;;;4994003;28;20440;-77
2021/12/19 09:38:13;;;;;;;3.57;2.73;;;;;;;;;;4992052;28;20211;-78
2021/12/19 09:40:42;;;;;;;4.30;3.33;;;;;;;;;;4997193;28;20787;-76
2021/12/19 09:43:31;;;;;;;5.13;3.42;;;;;;;;;;4995556;28;20862;-75
2021/12/19 09:45:59;;;;;;;4.03;3.00;;;;;;;;;;5005848;28;20215;-77
2021/12/19 09:48:26;;;;;;;5.00;3.57;;;;;;;;;;5003320;28;20468;-75
2021/12/19 09:50:54;;;;;;;3.33;2.40;;;;;;;;;;5010732;28;20498;-76
2021/12/19 09:53:23;;;;;;;3.22;2.25;;;;;;;;;;5008669;28;20459;-77
2021/12/19 09:55:50;;;;;;;6.50;4.40;;;;;;;;;;5010223;28;20542;-75
2021/12/19 09:58:17;;;;;;;3.72;2.67;;;;;;;;;;5002381;28;20436;-77
2021/12/19 10:00:45;;;;;;;4.10;2.90;;;;;;;;;;4992211;28;20217;-76
2021/12/19 10:03:12;;;;;;;2.95;2.13;;;;;;;;;;4997211;28;20201;-76
2021/12/19 10:05:39;;;;;;;2.93;2.40;;;;;;;;;;4999519;28;20204;-75
2021/12/19 10:08:06;;;;;;;3.53;2.38;;;;;;;;;;5002294;28;20436;-76
2021/12/19 10:10:42;;;;;;;3.93;2.30;;;;;;;;;;4999803;28;20220;-76
2021/12/19 10:13:10;;;;;;;3.77;2.30;;;;;;;;;;5006438;28;20452;-75
2021/12/19 10:15:38;;;;;;;4.00;2.47;;;;;;;;;;4990753;28;20989;-76
2021/12/19 10:18:07;;;;;;;3.73;2.47;;;;;;;;;;5008688;28;20521;-75
2021/12/19 10:20:43;;;;;;;4.00;2.40;;;;;;;;;;5009881;28;20471;-75
2021/12/19 10:23:11;;;;;;;3.05;2.00;;;;;;;;;;5007978;28;20462;-75
2021/12/19 10:25:40;;;;;;;2.70;2.10;;;;;;;;;;4993265;28;20586;-77
2021/12/19 10:28:09;;;;;;;3.00;1.90;;;;;;;;;;4998346;28;20955;-76
2021/12/19 10:30:37;;;;;;;2.20;1.93;;;;;;;;;;5000018;28;20490;-76
2021/12/19 10:33:05;;;;;;;2.97;2.00;;;;;;;;;;5005011;28;20955;-76
2021/12/19 10:35:34;;;;;;;5.80;3.40;;;;;;;;;;5000758;28;20450;-76
2021/12/19 10:38:03;;;;;;;5.13;3.67;;;;;;;;;;5009994;28;20452;-75
2021/12/19 10:40:31;;;;;;;2.33;1.87;;;;;;;;;;5009519;28;20489;-77
2021/12/19 10:43:01;;;;;;;2.40;1.80;;;;;;;;;;5000113;28;20439;-74
2021/12/19 10:45:31;;;;;;;2.03;1.50;;;;;;;;;;4996373;28;20470;-78
2021/12/19 10:48:14;;;;;;;2.13;1.40;;;;;;;;;;4995547;28;20542;-77
2021/12/19 10:50:43;;;;;;;1.70;1.50;;;;;;;;;;4993680;28;20518;-74
2021/12/19 10:53:10;;;;;;;2.23;1.73;;;;;;;;;;4996703;28;20443;-75
2021/12/19 10:55:37;;;;;;;1.80;1.50;;;;;;;;;;5007516;28;20451;-74
2021/12/19 10:58:18;;;;;;;1.97;1.47;;;;;;;;;;4992742;28;20454;-76
2021/12/19 11:00:55;;;;;;;2.70;1.50;;;;;;;;;;4996787;28;20822;-75
2021/12/19 11:03:34;;;;;;;2.83;2.07;;;;;;;;;;5003944;28;20442;-75
2021/12/19 11:06:01;;;;;;;2.00;1.80;;;;;;;;;;5009993;28;20442;-75
2021/12/19 11:08:31;;;;;;;2.60;1.77;;;;;;;;;;5008839;28;20473;-75
2021/12/19 11:10:58;;;;;;;2.00;1.77;;;;;;;;;;5008758;28;20502;-74
2021/12/19 11:13:26;;;;;;;3.10;2.00;;;;;;;;;;5006532;28;20459;-75
2021/12/19 11:15:54;;;;;;;2.17;1.63;;;;;;;;;;5000791;28;20435;-76
2021/12/19 11:18:21;;;;;;;2.90;1.80;;;;;;;;;;4995152;28;20435;-76
2021/12/19 11:20:49;;;;;;;3.10;2.20;;;;;;;;;;4989292;28;20474;-75
2021/12/19 11:23:17;;;;;;;2.77;1.70;;;;;;;;;;4989707;28;20436;-75
2021/12/19 11:25:44;;;;;;;2.10;1.87;;;;;;;;;;4991930;28;20451;-75
2021/12/19 11:28:12;;;;;;;2.50;1.97;;;;;;;;;;5010301;28;20442;-75
2021/12/19 11:30:41;;;;;;;2.73;2.00;;;;;;;;;;5002785;28;20511;-76
2021/12/19 11:33:13;;;;;;;3.90;1.90;;;;;;;;;;4995109;28;20798;-76
2021/12/19 11:35:45;;;;;;;3.33;2.30;;;;;;;;;;5001730;28;20803;-75
2021/12/19 11:38:13;;;;;;;3.03;1.90;;;;;;;;;;5009840;28;20439;-74
2021/12/19 11:40:41;;;;;;;3.47;1.90;;;;;;;;;;5009198;28;20494;-75
2021/12/19 11:43:09;;;;;;;2.43;2.23;;;;;;;;;;5012208;28;20442;-76
2021/12/19 11:45:40;;;;;;;2.70;2.30;;;;;;;;;;5003230;28;20783;-75
2021/12/19 11:48:21;;;;;;;4.20;2.80;;;;;;;;;;4995717;28;20459;-75
2021/12/19 11:50:49;;;;;;;3.20;2.50;;;;;;;;;;5001189;28;20494;-75
2021/12/19 11:53:23;;;;;;;4.03;2.83;;;;;;;;;;5009928;28;20454;-76
2021/12/19 11:55:51;;;;;;;3.17;2.73;;;;;;;;;;5009014;28;20447;-75
2021/12/19 11:58:22;;;;;;;4.70;2.60;;;;;;;;;;5009168;28;20435;-75
2021/12/19 12:00:51;;;;;;;3.63;2.90;;;;;;;;;;5005966;28;20949;-75
2021/12/19 12:03:24;;;;;;;4.20;3.30;;;;;;;;;;5009380;28;20458;-75
2021/12/19 12:05:52;;;;;;;3.90;3.23;;;;;;;;;;5011799;28;20443;-76
2021/12/19 12:08:20;;;;;;;4.63;2.50;;;;;;;;;;5002140;28;20434;-75
2021/12/19 12:11:02;;;;;;;3.03;2.17;;;;;;;;;;4996146;28;20486;-75
2021/12/19 12:13:30;;;;;;;3.73;2.70;;;;;;;;;;4988743;28;20800;-75
2021/12/19 12:16:04;;;;;;;4.00;3.50;;;;;;;;;;4987999;28;20515;-76
2021/12/19 12:18:34;;;;;;;3.77;2.70;;;;;;;;;;5007316;28;20487;-75
2021/12/19 12:21:27;;;;;;;4.40;3.07;;;;;;;;;;5009263;28;20960;-75
2021/12/19 12:23:56;;;;;;;4.60;2.60;;;;;;;;;;4999183;28;20813;-76
2021/12/19 12:26:25;;;;;;;4.30;2.73;;;;;;;;;;4993663;28;20491;-75
2021/12/19 12:28:53;;;;;;;2.93;2.63;;;;;;;;;;5002821;28;20469;-76
2021/12/19 12:31:20;;;;;;;5.83;3.03;;;;;;;;;;5003039;28;20491;-75
2021/12/19 12:33:49;;;;;;;4.60;3.27;;;;;;;;;;5005922;28;20454;-73
2021/12/19 12:36:16;;;;;;;4.60;2.80;;;;;;;;;;5008113;28;20835;-74
2021/12/19 12:38:46;;;;;;;3.53;2.90;;;;;;;;;;5006002;28;20456;-74
2021/12/19 12:41:27;;;;;;;3.53;2.53;;;;;;;;;;4995878;28;20459;-75
2021/12/19 12:43:54;;;;;;;4.47;3.10;;;;;;;;;;4989783;28;20522;-75
2021/12/19 12:46:23;;;;;;;5.03;3.43;;;;;;;;;;4989063;28;20450;-75
2021/12/19 12:48:54;;;;;;;4.00;2.90;;;;;;;;;;5004602;28;20459;-75
2021/12/19 12:51:30;;;;;;;3.90;2.93;;;;;;;;;;5011453;28;20854;-75
2021/12/19 12:53:58;;;;;;;7.47;3.23;;;;;;;;;;5009163;28;21141;-75
2021/12/19 12:56:31;;;;;;;3.60;3.27;;;;;;;;;;4998344;28;20427;-75
2021/12/19 12:58:58;;;;;;;3.57;3.20;;;;;;;;;;5002004;28;20439;-75
2021/12/19 13:01:27;;;;;;;4.50;3.27;;;;;;;;;;5012648;28;20812;-75
2021/12/19 13:03:56;;;;;;;4.60;3.10;;;;;;;;;;5010616;28;20451;-76
2021/12/19 13:06:38;;;;;;;5.30;3.10;;;;;;;;;;5011352;28;20916;-75
2021/12/19 13:09:14;;;;;;;3.03;2.33;;;;;;;;;;4992745;28;20450;-76
2021/12/19 13:11:42;;;;;;;4.00;2.83;;;;;;;;;;5000020;28;20489;-75
2021/12/19 13:14:13;;;;;;;5.13;3.23;;;;;;;;;;5000242;28;20435;-76
2021/12/19 13:16:44;;;;;;;5.30;3.80;;;;;;;;;;5010878;28;20447;-75
2021/12/19 13:19:32;;;;;;;4.57;3.67;;;;;;;;;;5011923;28;20454;-75
2021/12/19 13:21:59;;;;;;;4.47;3.13;;;;;;;;;;5012318;28;20447;-76
2021/12/19 13:24:26;;;;;;;4.57;3.67;;;;;;;;;;5010626;28;20473;-76
2021/12/19 13:27:04;;;;;;;4.03;3.13;;;;;;;;;;5012347;28;20466;-76
2021/12/19 13:29:31;;;;;;;3.80;3.10;;;;;;;;;;5012290;28;20461;-75
2021/12/19 13:32:13;;;;;;;5.20;3.07;;;;;;;;;;5008218;28;21175;-75
2021/12/19 13:34:42;;;;;;;5.23;3.77;;;;;;;;;;4989882;28;20450;-76
2021/12/19 13:37:09;;;;;;;4.13;2.93;;;;;;;;;;4994503;28;20447;-76
2021/12/19 13:39:36;;;;;;;3.30;2.53;;;;;;;;;;4991658;28;20460;-75
2021/12/19 13:42:07;;;;;;;3.87;2.53;;;;;;;;;;4990167;28;20875;-75
2021/12/19 13:44:34;;;;;;;3.17;2.60;;;;;;;;;;4992583;28;20450;-76
2021/12/19 13:47:09;;;;;;;2.23;2.03;;;;;;;;;;5002760;28;20554;-75
2021/12/19 13:49:37;;;;;;;2.40;2.20;;;;;;;;;;5014158;28;20471;-75
2021/12/19 13:52:06;;;;;;;2.40;2.07;;;;;;;;;;5013846;28;20489;-75
2021/12/19 13:54:37;;;;;;;1.63;1.53;;;;;;;;;;5007664;28;20443;-75
2021/12/19 13:57:16;;;;;;;2.10;1.90;;;;;;;;;;4997611;28;20454;-75
2021/12/19 13:59:43;;;;;;;2.17;1.80;;;;;;;;;;5003977;28;20482;-75
2021/12/19 14:02:11;;;;;;;1.47;1.37;;;;;;;;;;5011984;28;20457;-75
2021/12/19 14:04:38;;;;;;;2.17;1.70;;;;;;;;;;5008738;28;20516;-75
2021/12/19 14:07:11;;;;;;;2.07;1.77;;;;;;;;;;5011330;28;20443;-74
2021/12/19 14:09:40;;;;;;;2.60;1.57;;;;;;;;;;5009087;28;20574;-75
2021/12/19 14:12:12;;;;;;;1.50;1.30;;;;;;;;;;5000822;28;20510;-74
2021/12/19 14:14:39;;;;;;;2.00;1.60;;;;;;;;;;4997813;28;20443;-76
2021/12/19 14:17:07;;;;;;;2.80;1.70;;;;;;;;;;5009903;28;20534;-75
2021/12/19 14:19:35;;;;;;;2.07;1.67;;;;;;;;;;5009630;28;20529;-75
2021/12/19 14:22:12;;;;;;;1.87;1.60;;;;;;;;;;5009925;28;20961;-74
2021/12/19 14:24:41;;;;;;;2.17;1.63;;;;;;;;;;4991066;28;20440;-75
2021/12/19 14:27:12;;;;;;;1.93;1.60;;;;;;;;;;4999487;28;20479;-75
2021/12/19 14:29:41;;;;;;;1.30;1.20;;;;;;;;;;4995055;28;20487;-75
2021/12/19 14:32:09;;;;;;;2.00;1.60;;;;;;;;;;5005585;28;20497;-74
2021/12/19 14:34:38;;;;;;;1.73;1.30;;;;;;;;;;5007472;28;20472;-75
2021/12/19 14:37:19;;;;;;;1.87;1.50;;;;;;;;;;5008696;28;20442;-76
2021/12/19 14:40:02;;;;;;;2.47;1.40;;;;;;;;;;5006040;28;20481;-75
2021/12/19 14:42:31;;;;;;;2.23;1.60;;;;;;;;;;4993554;28;20546;-75
2021/12/19 14:44:59;;;;;;;2.23;1.87;;;;;;;;;;4993931;28;20455;-75
2021/12/19 14:47:35;;;;;;;1.17;1.07;;;;;;;;;;5003505;28;20463;-75
2021/12/19 14:50:10;;;;;;;1.70;1.47;;;;;;;;;;5005344;28;20979;-75
2021/12/19 14:52:37;;;;;;;2.53;1.40;;;;;;;;;;5006604;28;20482;-75
2021/12/19 14:55:12;;;;;;;2.57;1.60;;;;;;;;;;5008199;28;20447;-75
2021/12/19 14:57:40;;;;;;;1.60;1.40;;;;;;;;;;5005693;28;20451;-75
2021/12/19 15:00:09;;;;;;;1.60;1.50;;;;;;;;;;5003077;28;20479;-74
2021/12/19 15:02:36;;;;;;;2.23;1.37;;;;;;;;;;4993618;28;20431;-75
2021/12/19 15:05:03;;;;;;;2.63;2.10;;;;;;;;;;4996221;28;21056;-75
2021/12/19 15:07:31;;;;;;;1.87;1.50;;;;;;;;;;5008115;28;20442;-75
2021/12/19 15:09:58;;;;;;;1.87;1.67;;;;;;;;;;5006495;28;21025;-75
2021/12/19 15:12:26;;;;;;;2.50;1.90;;;;;;;;;;5003247;28;20486;-75
2021/12/19 15:14:54;;;;;;;1.90;1.80;;;;;;;;;;5009298;28;20463;-76
2021/12/19 15:17:21;;;;;;;2.13;1.80;;;;;;;;;;5004153;28;20862;-77
2021/12/19 15:19:49;;;;;;;2.55;2.15;;;;;;;;;;4994894;28;21010;-74
2021/12/19 15:22:16;;;;;;;3.13;2.27;;;;;;;;;;5005299;28;20296;-74
2021/12/19 15:24:43;;;;;;;2.37;2.00;;;;;;;;;;5007444;28;20459;-74
2021/12/19 15:27:10;;;;;;;2.22;1.90;;;;;;;;;;5010122;28;20447;-75
2021/12/19 15:29:37;;;;;;;2.17;1.88;;;;;;;;;;5009873;28;20575;-76
2021/12/19 15:32:07;;;;;;;3.28;2.97;;;;;;;;;;5008187;28;20700;-76
2021/12/19 15:34:34;;;;;;;3.90;2.53;;;;;;;;;;4995596;28;20290;-75
2021/12/19 15:37:01;;;;;;;5.83;2.60;;;;;;;;;;4999712;28;20831;-76